sensor_id;sensor_type;location;lat;lon;timestamp;pressure;altitude;pressure_sealevel;temperature;humidity
61318;BME280;47201;40.428;-8.436;2022-10-22T00:01:26;100315.72;;;16.29;100.00
61318;BME280;47201;40.428;-8.436;2022-10-22T00:03:27;100307.06;;;16.24;100.00
61318;BME280;47201;40.428;-8.436;2022-10-22T00:05:28;100291.34;;;16.21;100.00
61318;BME280;47201;40.428;-8.436;2022-10-22T00:07:28;100298.34;;;16.22;100.00
61318;BME280;47201;40.428;-8.436;2022-10-22T00:09:29;100292.13;;;16.25;100.00
61318;BME280;47201;40.428;-8.436;2022-10-22T00:11:29;100287.69;;;16.25;100.00
61318;BME280;47201;40.428;-8.436;2022-10-22T00:13:30;100290.25;;;16.28;100.00
61318;BME280;47201;40.428;-8.436;2022-10-22T00:15:30;100286.72;;;16.28;100.00
61318;BME280;47201;40.428;-8.436;2022-10-22T00:17:31;100284.06;;;16.29;100.00
61318;BME280;47201;40.428;-8.436;2022-10-22T00:19:31;100286.63;;;16.31;100.00
61318;BME280;47201;40.428;-8.436;2022-10-22T00:21:32;100279.78;;;16.25;100.00
61318;BME280;47201;40.428;-8.436;2022-10-22T00:23:33;100278.09;;;16.23;100.00
61318;BME280;47201;40.428;-8.436;2022-10-22T00:25:33;100275.41;;;16.24;100.00
61318;BME280;47201;40.428;-8.436;2022-10-22T00:27:34;100281.63;;;16.23;100.00
61318;BME280;47201;40.428;-8.436;2022-10-22T00:29:35;100265.81;;;16.23;100.00
61318;BME280;47201;40.428;-8.436;2022-10-22T00:31:35;100269.28;;;16.24;100.00
61318;BME280;47201;40.428;-8.436;2022-10-22T00:33:36;100268.31;;;16.26;100.00
61318;BME280;47201;40.428;-8.436;2022-10-22T00:35:36;100265.88;;;16.20;100.00
61318;BME280;47201;40.428;-8.436;2022-10-22T00:37:37;100260.53;;;16.23;100.00
61318;BME280;47201;40.428;-8.436;2022-10-22T00:39:40;100268.47;;;16.22;100.00
61318;BME280;47201;40.428;-8.436;2022-10-22T00:41:42;100257.88;;;16.23;100.00
61318;BME280;47201;40.428;-8.436;2022-10-22T00:43:52;100255.06;;;16.28;100.00
61318;BME280;47201;40.428;-8.436;2022-10-22T00:45:52;100254.44;;;16.21;100.00
61318;BME280;47201;40.428;-8.436;2022-10-22T00:49:54;100255.34;;;16.20;100.00
61318;BME280;47201;40.428;-8.436;2022-10-22T00:51:54;100241.31;;;16.18;100.00
61318;BME280;47201;40.428;-8.436;2022-10-22T00:53:56;100247.38;;;16.22;100.00
61318;BME280;47201;40.428;-8.436;2022-10-22T00:55:59;100243.88;;;16.21;100.00
61318;BME280;47201;40.428;-8.436;2022-10-22T00:58:00;100236.59;;;16.28;100.00
61318;BME280;47201;40.428;-8.436;2022-10-22T01:00:02;100238.59;;;16.21;100.00
61318;BME280;47201;40.428;-8.436;2022-10-22T01:02:03;100236.00;;;16.20;100.00
61318;BME280;47201;40.428;-8.436;2022-10-22T01:04:03;100236.06;;;16.18;100.00
61318;BME280;47201;40.428;-8.436;2022-10-22T01:06:04;100232.56;;;16.17;100.00
61318;BME280;47201;40.428;-8.436;2022-10-22T01:08:05;100239.72;;;16.14;100.00
61318;BME280;47201;40.428;-8.436;2022-10-22T01:12:34;100232.94;;;16.05;100.00
61318;BME280;47201;40.428;-8.436;2022-10-22T01:14:50;100236.19;;;16.13;100.00
61318;BME280;47201;40.428;-8.436;2022-10-22T01:21:12;100223.84;;;16.15;100.00
61318;BME280;47201;40.428;-8.436;2022-10-22T01:25:34;100215.78;;;16.20;100.00
61318;BME280;47201;40.428;-8.436;2022-10-22T01:30:10;100207.94;;;16.18;100.00
61318;BME280;47201;40.428;-8.436;2022-10-22T01:32:19;100214.06;;;16.19;100.00
61318;BME280;47201;40.428;-8.436;2022-10-22T01:34:21;100215.94;;;16.15;100.00
61318;BME280;47201;40.428;-8.436;2022-10-22T01:36:23;100203.50;;;16.19;100.00
61318;BME280;47201;40.428;-8.436;2022-10-22T01:38:23;100214.13;;;16.16;100.00
61318;BME280;47201;40.428;-8.436;2022-10-22T01:40:24;100208.06;;;16.14;100.00
61318;BME280;47201;40.428;-8.436;2022-10-22T01:42:26;100208.06;;;16.14;100.00
61318;BME280;47201;40.428;-8.436;2022-10-22T01:44:28;100203.00;;;16.08;100.00
61318;BME280;47201;40.428;-8.436;2022-10-22T01:46:29;100202.19;;;16.06;100.00
61318;BME280;47201;40.428;-8.436;2022-10-22T01:56:58;100191.63;;;16.06;100.00
61318;BME280;47201;40.428;-8.436;2022-10-22T01:59:30;100183.72;;;16.06;100.00
61318;BME280;47201;40.428;-8.436;2022-10-22T02:01:34;100173.19;;;16.06;100.00
61318;BME280;47201;40.428;-8.436;2022-10-22T02:04:22;100174.91;;;16.07;100.00
61318;BME280;47201;40.428;-8.436;2022-10-22T02:06:03;100172.81;;;16.16;100.00
61318;BME280;47201;40.428;-8.436;2022-10-22T02:08:16;100174.56;;;16.17;100.00
61318;BME280;47201;40.428;-8.436;2022-10-22T02:10:18;100179.91;;;16.14;100.00
61318;BME280;47201;40.428;-8.436;2022-10-22T02:12:19;100172.97;;;16.12;100.00
61318;BME280;47201;40.428;-8.436;2022-10-22T02:14:21;100178.09;;;16.16;100.00
61318;BME280;47201;40.428;-8.436;2022-10-22T02:16:27;100175.41;;;16.18;100.00
61318;BME280;47201;40.428;-8.436;2022-10-22T02:18:29;100175.41;;;16.18;100.00
61318;BME280;47201;40.428;-8.436;2022-10-22T02:20:32;100176.22;;;16.20;100.00
61318;BME280;47201;40.428;-8.436;2022-10-22T02:22:34;100174.44;;;16.21;100.00
61318;BME280;47201;40.428;-8.436;2022-10-22T02:24:36;100166.69;;;16.16;100.00
61318;BME280;47201;40.428;-8.436;2022-10-22T02:26:38;100172.72;;;16.20;100.00
61318;BME280;47201;40.428;-8.436;2022-10-22T02:31:12;100168.72;;;16.34;100.00
61318;BME280;47201;40.428;-8.436;2022-10-22T02:33:18;100169.38;;;16.41;100.00
61318;BME280;47201;40.428;-8.436;2022-10-22T02:35:21;100163.22;;;16.41;100.00
61318;BME280;47201;40.428;-8.436;2022-10-22T02:37:23;100162.25;;;16.43;100.00
61318;BME280;47201;40.428;-8.436;2022-10-22T02:39:24;100158.00;;;16.39;100.00
61318;BME280;47201;40.428;-8.436;2022-10-22T02:41:25;100154.47;;;16.40;100.00
61318;BME280;47201;40.428;-8.436;2022-10-22T02:43:27;100156.97;;;16.43;100.00
61318;BME280;47201;40.428;-8.436;2022-10-22T02:45:28;100161.47;;;16.41;100.00
61318;BME280;47201;40.428;-8.436;2022-10-22T02:47:29;100162.25;;;16.43;100.00
61318;BME280;47201;40.428;-8.436;2022-10-22T02:49:29;100158.91;;;16.38;100.00
61318;BME280;47201;40.428;-8.436;2022-10-22T02:51:30;100155.53;;;16.34;100.00
61318;BME280;47201;40.428;-8.436;2022-10-22T02:53:30;100147.75;;;16.30;100.00
61318;BME280;47201;40.428;-8.436;2022-10-22T02:55:31;100142.63;;;16.27;100.00
61318;BME280;47201;40.428;-8.436;2022-10-22T02:57:31;100138.34;;;16.23;100.00
61318;BME280;47201;40.428;-8.436;2022-10-22T02:59:32;100149.03;;;16.18;100.00
61318;BME280;47201;40.428;-8.436;2022-10-22T03:01:33;100138.56;;;16.16;100.00
61318;BME280;47201;40.428;-8.436;2022-10-22T03:03:33;100129.56;;;16.22;100.00
61318;BME280;47201;40.428;-8.436;2022-10-22T03:05:34;100129.56;;;16.22;100.00
61318;BME280;47201;40.428;-8.436;2022-10-22T03:07:35;100125.09;;;16.24;100.00
61318;BME280;47201;40.428;-8.436;2022-10-22T03:09:35;100136.75;;;16.17;100.00
61318;BME280;47201;40.428;-8.436;2022-10-22T03:11:36;100123.47;;;16.20;100.00
61318;BME280;47201;40.428;-8.436;2022-10-22T03:13:36;100113.91;;;16.17;100.00
61318;BME280;47201;40.428;-8.436;2022-10-22T03:15:37;100113.00;;;16.18;100.00
61318;BME280;47201;40.428;-8.436;2022-10-22T03:17:38;100106.97;;;16.15;100.00
61318;BME280;47201;40.428;-8.436;2022-10-22T03:19:38;100122.78;;;16.15;100.00
61318;BME280;47201;40.428;-8.436;2022-10-22T03:21:47;100109.59;;;16.15;100.00
61318;BME280;47201;40.428;-8.436;2022-10-22T03:23:48;100108.56;;;16.19;100.00
61318;BME280;47201;40.428;-8.436;2022-10-22T03:25:49;100103.53;;;16.13;100.00
61318;BME280;47201;40.428;-8.436;2022-10-22T03:27:50;100097.28;;;16.15;100.00
61318;BME280;47201;40.428;-8.436;2022-10-22T03:29:51;100099.91;;;16.15;100.00
61318;BME280;47201;40.428;-8.436;2022-10-22T03:31:52;100094.63;;;16.15;100.00
61318;BME280;47201;40.428;-8.436;2022-10-22T03:33:53;100092.81;;;16.17;100.00
61318;BME280;47201;40.428;-8.436;2022-10-22T03:35:53;100086.47;;;16.23;100.00
61318;BME280;47201;40.428;-8.436;2022-10-22T03:37:54;100082.88;;;16.26;100.00
61318;BME280;47201;40.428;-8.436;2022-10-22T03:39:55;100074.94;;;16.26;100.00
61318;BME280;47201;40.428;-8.436;2022-10-22T03:41:55;100076.72;;;16.25;100.00
61318;BME280;47201;40.428;-8.436;2022-10-22T03:43:56;100081.13;;;16.25;100.00
61318;BME280;47201;40.428;-8.436;2022-10-22T03:45:57;100074.13;;;16.24;100.00
61318;BME280;47201;40.428;-8.436;2022-10-22T03:47:58;100080.09;;;16.29;100.00
61318;BME280;47201;40.428;-8.436;2022-10-22T03:49:58;100080.06;;;16.30;100.00
61318;BME280;47201;40.428;-8.436;2022-10-22T03:52:06;100070.31;;;16.32;100.00
61318;BME280;47201;40.428;-8.436;2022-10-22T03:54:06;100069.44;;;16.32;100.00
61318;BME280;47201;40.428;-8.436;2022-10-22T03:56:10;100071.19;;;16.33;100.00
61318;BME280;47201;40.428;-8.436;2022-10-22T03:58:11;100057.88;;;16.36;100.00
61318;BME280;47201;40.428;-8.436;2022-10-22T04:00:11;100062.28;;;16.36;100.00
61318;BME280;47201;40.428;-8.436;2022-10-22T04:02:12;100052.66;;;16.34;100.00
61318;BME280;47201;40.428;-8.436;2022-10-22T04:04:13;100051.00;;;16.32;100.00
61318;BME280;47201;40.428;-8.436;2022-10-22T04:06:13;100045.41;;;16.41;100.00
61318;BME280;47201;40.428;-8.436;2022-10-22T04:08:14;100047.81;;;16.47;100.00
61318;BME280;47201;40.428;-8.436;2022-10-22T04:10:15;100040.56;;;16.53;100.00
61318;BME280;47201;40.428;-8.436;2022-10-22T04:12:15;100040.50;;;16.54;100.00
61318;BME280;47201;40.428;-8.436;2022-10-22T04:14:16;100035.06;;;16.59;100.00
61318;BME280;47201;40.428;-8.436;2022-10-22T04:16:17;100025.38;;;16.59;100.00
61318;BME280;47201;40.428;-8.436;2022-10-22T04:18:19;100031.63;;;16.57;100.00
61318;BME280;47201;40.428;-8.436;2022-10-22T04:20:19;100027.03;;;16.62;100.00
61318;BME280;47201;40.428;-8.436;2022-10-22T04:22:20;100030.53;;;16.62;100.00
61318;BME280;47201;40.428;-8.436;2022-10-22T04:24:20;100020.88;;;16.61;100.00
61318;BME280;47201;40.428;-8.436;2022-10-22T04:26:21;100020.88;;;16.61;100.00
61318;BME280;47201;40.428;-8.436;2022-10-22T04:28:21;100022.75;;;16.59;100.00
61318;BME280;47201;40.428;-8.436;2022-10-22T04:30:22;100026.00;;;16.66;100.00
61318;BME280;47201;40.428;-8.436;2022-10-22T04:32:23;100022.19;;;16.73;100.00
61318;BME280;47201;40.428;-8.436;2022-10-22T04:34:25;100001.78;;;16.78;100.00
61318;BME280;47201;40.428;-8.436;2022-10-22T04:36:26;100013.88;;;16.84;100.00
61318;BME280;47201;40.428;-8.436;2022-10-22T04:38:27;100021.63;;;16.89;100.00
61318;BME280;47201;40.428;-8.436;2022-10-22T04:40:28;100022.38;;;16.92;100.00
61318;BME280;47201;40.428;-8.436;2022-10-22T04:42:28;100023.09;;;16.98;100.00
61318;BME280;47201;40.428;-8.436;2022-10-22T04:44:29;100020.38;;;16.99;100.00
61318;BME280;47201;40.428;-8.436;2022-10-22T04:46:30;100019.41;;;17.02;100.00
61318;BME280;47201;40.428;-8.436;2022-10-22T04:48:30;100020.97;;;17.06;100.00
61318;BME280;47201;40.428;-8.436;2022-10-22T04:50:31;100023.63;;;17.06;100.00
61318;BME280;47201;40.428;-8.436;2022-10-22T04:52:32;100013.06;;;17.06;100.00
61318;BME280;47201;40.428;-8.436;2022-10-22T04:54:32;100022.53;;;17.11;100.00
61318;BME280;47201;40.428;-8.436;2022-10-22T04:56:33;100019.97;;;17.10;100.00
61318;BME280;47201;40.428;-8.436;2022-10-22T04:58:33;99999.50;;;17.15;100.00
61318;BME280;47201;40.428;-8.436;2022-10-22T05:00:34;100012.53;;;17.20;100.00
61318;BME280;47201;40.428;-8.436;2022-10-22T05:02:34;100011.47;;;17.24;100.00
61318;BME280;47201;40.428;-8.436;2022-10-22T05:04:35;100001.78;;;17.24;100.00
61318;BME280;47201;40.428;-8.436;2022-10-22T05:06:35;100006.13;;;17.25;100.00
61318;BME280;47201;40.428;-8.436;2022-10-22T05:08:36;100007.59;;;17.33;100.00
61318;BME280;47201;40.428;-8.436;2022-10-22T05:10:37;100006.72;;;17.32;100.00
61318;BME280;47201;40.428;-8.436;2022-10-22T05:12:41;100005.88;;;17.32;100.00
61318;BME280;47201;40.428;-8.436;2022-10-22T05:14:41;100016.19;;;17.38;100.00
61318;BME280;47201;40.428;-8.436;2022-10-22T05:16:42;100012.75;;;17.36;100.00
61318;BME280;47201;40.428;-8.436;2022-10-22T05:18:43;100014.28;;;17.41;100.00
61318;BME280;47201;40.428;-8.436;2022-10-22T05:20:43;100017.66;;;17.45;100.00
61318;BME280;47201;40.428;-8.436;2022-10-22T05:22:44;100022.94;;;17.45;100.00
61318;BME280;47201;40.428;-8.436;2022-10-22T05:24:44;100010.47;;;17.49;100.00
61318;BME280;47201;40.428;-8.436;2022-10-22T05:26:47;100014.00;;;17.49;100.00
61318;BME280;47201;40.428;-8.436;2022-10-22T05:28:48;100010.41;;;17.50;100.00
61318;BME280;47201;40.428;-8.436;2022-10-22T05:30:52;100028.03;;;17.50;100.00
61318;BME280;47201;40.428;-8.436;2022-10-22T05:32:53;100012.06;;;17.53;100.00
61318;BME280;47201;40.428;-8.436;2022-10-22T05:34:53;100009.63;;;17.48;100.00
61318;BME280;47201;40.428;-8.436;2022-10-22T05:36:54;100015.81;;;17.47;100.00
61318;BME280;47201;40.428;-8.436;2022-10-22T05:38:55;100003.59;;;17.44;100.00
61318;BME280;47201;40.428;-8.436;2022-10-22T05:41:03;99996.78;;;17.39;100.00
61318;BME280;47201;40.428;-8.436;2022-10-22T05:43:04;99997.97;;;17.32;100.00
61318;BME280;47201;40.428;-8.436;2022-10-22T05:45:05;99992.69;;;17.32;100.00
61318;BME280;47201;40.428;-8.436;2022-10-22T05:47:06;99984.88;;;17.28;100.00
61318;BME280;47201;40.428;-8.436;2022-10-22T05:49:06;99998.22;;;17.25;100.00
61318;BME280;47201;40.428;-8.436;2022-10-22T05:51:11;99987.91;;;17.19;100.00
61318;BME280;47201;40.428;-8.436;2022-10-22T05:53:12;99995.75;;;17.21;100.00
61318;BME280;47201;40.428;-8.436;2022-10-22T05:55:12;99991.31;;;17.21;100.00
61318;BME280;47201;40.428;-8.436;2022-10-22T05:57:13;99991.28;;;17.23;100.00
61318;BME280;47201;40.428;-8.436;2022-10-22T05:59:13;99993.19;;;17.19;100.00
61318;BME280;47201;40.428;-8.436;2022-10-22T06:01:15;99980.81;;;17.20;100.00
61318;BME280;47201;40.428;-8.436;2022-10-22T06:03:16;99980.72;;;17.23;100.00
61318;BME280;47201;40.428;-8.436;2022-10-22T06:05:16;99995.44;;;17.28;100.00
61318;BME280;47201;40.428;-8.436;2022-10-22T06:07:17;99989.19;;;17.31;100.00
61318;BME280;47201;40.428;-8.436;2022-10-22T06:09:25;99988.13;;;17.35;100.00
61318;BME280;47201;40.428;-8.436;2022-10-22T06:11:26;99997.03;;;17.33;100.00
61318;BME280;47201;40.428;-8.436;2022-10-22T06:13:27;99999.44;;;17.39;100.00
61318;BME280;47201;40.428;-8.436;2022-10-22T06:15:27;99993.16;;;17.41;100.00
61318;BME280;47201;40.428;-8.436;2022-10-22T06:17:28;99990.66;;;17.38;100.00
61318;BME280;47201;40.428;-8.436;2022-10-22T06:19:29;99999.16;;;17.45;100.00
61318;BME280;47201;40.428;-8.436;2022-10-22T06:21:30;99990.59;;;17.40;100.00
61318;BME280;47201;40.428;-8.436;2022-10-22T06:23:30;99989.94;;;17.35;100.00
61318;BME280;47201;40.428;-8.436;2022-10-22T06:25:31;99987.56;;;17.27;100.00
61318;BME280;47201;40.428;-8.436;2022-10-22T06:27:32;99986.91;;;17.22;100.00
61318;BME280;47201;40.428;-8.436;2022-10-22T06:29:32;99982.81;;;17.15;100.00
61318;BME280;47201;40.428;-8.436;2022-10-22T06:31:33;99980.34;;;17.10;100.00
61318;BME280;47201;40.428;-8.436;2022-10-22T06:33:36;99979.00;;;17.00;100.00
61318;BME280;47201;40.428;-8.436;2022-10-22T06:35:41;99994.22;;;16.93;100.00
61318;BME280;47201;40.428;-8.436;2022-10-22T06:37:41;99980.28;;;16.88;100.00
61318;BME280;47201;40.428;-8.436;2022-10-22T06:39:42;99979.56;;;16.84;100.00
61318;BME280;47201;40.428;-8.436;2022-10-22T06:41:43;99980.72;;;16.77;100.00
61318;BME280;47201;40.428;-8.436;2022-10-22T06:43:44;99980.72;;;16.77;100.00
61318;BME280;47201;40.428;-8.436;2022-10-22T06:45:45;99978.31;;;16.71;100.00
61318;BME280;47201;40.428;-8.436;2022-10-22T06:47:46;99975.13;;;16.62;100.00
61318;BME280;47201;40.428;-8.436;2022-10-22T06:49:47;99977.31;;;16.51;100.00
61318;BME280;47201;40.428;-8.436;2022-10-22T06:51:48;99975.69;;;16.47;100.00
61318;BME280;47201;40.428;-8.436;2022-10-22T06:53:49;99967.91;;;16.44;100.00
61318;BME280;47201;40.428;-8.436;2022-10-22T06:55:50;99971.47;;;16.43;100.00
61318;BME280;47201;40.428;-8.436;2022-10-22T06:57:50;99965.38;;;16.41;100.00
61318;BME280;47201;40.428;-8.436;2022-10-22T06:59:51;99956.66;;;16.39;100.00
61318;BME280;47201;40.428;-8.436;2022-10-22T07:01:51;99953.06;;;16.41;100.00
61318;BME280;47201;40.428;-8.436;2022-10-22T07:03:52;99950.53;;;16.38;100.00
61318;BME280;47201;40.428;-8.436;2022-10-22T07:05:53;99951.44;;;16.37;100.00
61318;BME280;47201;40.428;-8.436;2022-10-22T07:07:54;99956.78;;;16.36;100.00
61318;BME280;47201;40.428;-8.436;2022-10-22T07:09:54;99969.31;;;16.30;100.00
61318;BME280;47201;40.428;-8.436;2022-10-22T07:11:55;99949.22;;;16.26;100.00
61318;BME280;47201;40.428;-8.436;2022-10-22T07:13:56;99956.31;;;16.24;100.00
61318;BME280;47201;40.428;-8.436;2022-10-22T07:15:57;99967.16;;;16.16;100.00
61318;BME280;47201;40.428;-8.436;2022-10-22T07:17:57;99967.25;;;16.13;100.00
61318;BME280;47201;40.428;-8.436;2022-10-22T07:19:58;99955.88;;;16.13;100.00
61318;BME280;47201;40.428;-8.436;2022-10-22T07:21:58;99956.94;;;16.07;100.00
61318;BME280;47201;40.428;-8.436;2022-10-22T07:23:59;99970.19;;;16.06;100.00
61318;BME280;47201;40.428;-8.436;2022-10-22T07:26:00;99964.69;;;16.12;100.00
61318;BME280;47201;40.428;-8.436;2022-10-22T07:28:05;99954.06;;;16.13;100.00
61318;BME280;47201;40.428;-8.436;2022-10-22T07:30:06;99961.88;;;16.16;100.00
61318;BME280;47201;40.428;-8.436;2022-10-22T07:32:07;99970.72;;;16.15;100.00
61318;BME280;47201;40.428;-8.436;2022-10-22T07:34:08;99963.72;;;16.14;100.00
61318;BME280;47201;40.428;-8.436;2022-10-22T07:36:12;99960.16;;;16.15;100.00
61318;BME280;47201;40.428;-8.436;2022-10-22T07:38:16;99964.63;;;16.13;100.00
61318;BME280;47201;40.428;-8.436;2022-10-22T07:40:17;99961.97;;;16.13;100.00
61318;BME280;47201;40.428;-8.436;2022-10-22T07:42:17;99962.81;;;16.15;100.00
61318;BME280;47201;40.428;-8.436;2022-10-22T07:44:18;99958.19;;;16.21;100.00
61318;BME280;47201;40.428;-8.436;2022-10-22T07:46:19;99971.34;;;16.22;100.00
61318;BME280;47201;40.428;-8.436;2022-10-22T07:48:19;99959.13;;;16.20;100.00
61318;BME280;47201;40.428;-8.436;2022-10-22T07:50:20;99967.00;;;16.21;100.00
61318;BME280;47201;40.428;-8.436;2022-10-22T07:52:20;99958.09;;;16.24;100.00
61318;BME280;47201;40.428;-8.436;2022-10-22T07:54:21;99961.66;;;16.23;100.00
61318;BME280;47201;40.428;-8.436;2022-10-22T07:56:22;99959.66;;;16.29;100.00
61318;BME280;47201;40.428;-8.436;2022-10-22T07:58:22;99961.31;;;16.32;100.00
61318;BME280;47201;40.428;-8.436;2022-10-22T08:00:23;99957.53;;;16.39;100.00
61318;BME280;47201;40.428;-8.436;2022-10-22T08:02:24;99946.50;;;16.52;100.00
61318;BME280;47201;40.428;-8.436;2022-10-22T08:04:24;99961.16;;;16.60;100.00
61318;BME280;47201;40.428;-8.436;2022-10-22T08:06:25;99954.00;;;16.62;100.00
61318;BME280;47201;40.428;-8.436;2022-10-22T08:08:26;99962.00;;;16.61;100.00
61318;BME280;47201;40.428;-8.436;2022-10-22T08:10:26;99952.41;;;16.58;100.00
61318;BME280;47201;40.428;-8.436;2022-10-22T08:12:27;99948.06;;;16.57;100.00
61318;BME280;47201;40.428;-8.436;2022-10-22T08:14:27;99941.63;;;16.64;100.00
61318;BME280;47201;40.428;-8.436;2022-10-22T08:16:28;99949.44;;;16.68;100.00
61318;BME280;47201;40.428;-8.436;2022-10-22T08:18:29;99932.28;;;16.78;100.00
61318;BME280;47201;40.428;-8.436;2022-10-22T08:20:30;99940.69;;;16.88;100.00
61318;BME280;47201;40.428;-8.436;2022-10-22T08:22:30;99939.19;;;17.04;100.00
61318;BME280;47201;40.428;-8.436;2022-10-22T08:24:31;99942.06;;;17.20;100.00
61318;BME280;47201;40.428;-8.436;2022-10-22T08:26:31;99930.84;;;17.36;100.00
61318;BME280;47201;40.428;-8.436;2022-10-22T08:28:32;99935.38;;;17.54;100.00
61318;BME280;47201;40.428;-8.436;2022-10-22T08:30:36;99927.28;;;17.57;100.00
61318;BME280;47201;40.428;-8.436;2022-10-22T08:32:37;99930.00;;;17.56;100.00
61318;BME280;47201;40.428;-8.436;2022-10-22T08:34:41;99931.00;;;17.53;100.00
61318;BME280;47201;40.428;-8.436;2022-10-22T08:36:41;99930.09;;;17.54;100.00
61318;BME280;47201;40.428;-8.436;2022-10-22T08:38:42;99935.09;;;17.60;100.00
61318;BME280;47201;40.428;-8.436;2022-10-22T08:40:43;99923.09;;;17.53;100.00
61318;BME280;47201;40.428;-8.436;2022-10-22T08:42:54;99939.47;;;17.62;100.00
61318;BME280;47201;40.428;-8.436;2022-10-22T08:45:02;99929.94;;;17.57;100.00
61318;BME280;47201;40.428;-8.436;2022-10-22T08:49:15;99919.91;;;17.24;100.00
61318;BME280;47201;40.428;-8.436;2022-10-22T08:51:19;99916.59;;;17.19;100.00
61318;BME280;47201;40.428;-8.436;2022-10-22T08:53:22;99919.53;;;17.34;100.00
61318;BME280;47201;40.428;-8.436;2022-10-22T08:55:25;99918.06;;;17.47;100.00
61318;BME280;47201;40.428;-8.436;2022-10-22T08:59:26;99900.53;;;17.86;100.00
61318;BME280;47201;40.428;-8.436;2022-10-22T09:01:38;99906.59;;;18.08;100.00
61318;BME280;47201;40.428;-8.436;2022-10-22T09:07:44;99877.09;;;17.78;100.00
61318;BME280;47201;40.428;-8.436;2022-10-22T09:09:49;99869.50;;;17.50;100.00
61318;BME280;47201;40.428;-8.436;2022-10-22T09:11:51;99848.59;;;17.24;100.00
61318;BME280;47201;40.428;-8.436;2022-10-22T09:13:53;99877.38;;;17.10;100.00
61318;BME280;47201;40.428;-8.436;2022-10-22T09:15:56;99925.53;;;16.94;100.00
61318;BME280;47201;40.428;-8.436;2022-10-22T09:24:23;99923.22;;;16.63;100.00
61318;BME280;47201;40.428;-8.436;2022-10-22T09:26:25;99921.59;;;16.59;100.00
61318;BME280;47201;40.428;-8.436;2022-10-22T09:28:26;99925.34;;;16.53;100.00
61318;BME280;47201;40.428;-8.436;2022-10-22T09:30:29;99923.69;;;16.50;100.00
61318;BME280;47201;40.428;-8.436;2022-10-22T09:32:29;99914.19;;;16.46;100.00
61318;BME280;47201;40.428;-8.436;2022-10-22T09:34:31;99921.34;;;16.43;100.00
61318;BME280;47201;40.428;-8.436;2022-10-22T09:36:32;99918.78;;;16.41;100.00
61318;BME280;47201;40.428;-8.436;2022-10-22T09:38:38;99919.72;;;16.39;100.00
61318;BME280;47201;40.428;-8.436;2022-10-22T09:40:49;99914.34;;;16.42;100.00
61318;BME280;47201;40.428;-8.436;2022-10-22T09:42:50;99911.72;;;16.42;100.00
61318;BME280;47201;40.428;-8.436;2022-10-22T09:44:58;99920.53;;;16.41;100.00
61318;BME280;47201;40.428;-8.436;2022-10-22T09:46:58;99911.81;;;16.39;100.00
61318;BME280;47201;40.428;-8.436;2022-10-22T09:49:04;99925.88;;;16.39;100.00
61318;BME280;47201;40.428;-8.436;2022-10-22T09:53:19;99922.09;;;16.46;100.00
61318;BME280;47201;40.428;-8.436;2022-10-22T09:55:21;99914.09;;;16.48;100.00
61318;BME280;47201;40.428;-8.436;2022-10-22T09:57:23;99884.91;;;16.53;100.00
61318;BME280;47201;40.428;-8.436;2022-10-22T09:59:36;99881.28;;;16.55;100.00
61318;BME280;47201;40.428;-8.436;2022-10-22T10:01:37;99877.91;;;16.52;100.00
61318;BME280;47201;40.428;-8.436;2022-10-22T10:03:37;99871.81;;;16.49;100.00
61318;BME280;47201;40.428;-8.436;2022-10-22T10:05:38;99863.00;;;16.50;100.00
61318;BME280;47201;40.428;-8.436;2022-10-22T10:07:40;99871.78;;;16.51;100.00
61318;BME280;47201;40.428;-8.436;2022-10-22T10:09:41;99865.63;;;16.50;100.00
61318;BME280;47201;40.428;-8.436;2022-10-22T10:11:43;99855.91;;;16.53;100.00
61318;BME280;47201;40.428;-8.436;2022-10-22T10:13:46;99855.97;;;16.51;100.00
61318;BME280;47201;40.428;-8.436;2022-10-22T10:15:55;99854.31;;;16.48;100.00
61318;BME280;47201;40.428;-8.436;2022-10-22T10:22:22;99876.00;;;16.55;100.00
61318;BME280;47201;40.428;-8.436;2022-10-22T10:24:29;99870.72;;;16.55;100.00
61318;BME280;47201;40.428;-8.436;2022-10-22T10:26:34;99882.34;;;16.51;100.00
61318;BME280;47201;40.428;-8.436;2022-10-22T10:28:46;99901.72;;;16.50;100.00
61318;BME280;47201;40.428;-8.436;2022-10-22T10:37:19;99946.81;;;16.44;100.00
61318;BME280;47201;40.428;-8.436;2022-10-22T10:41:30;99975.84;;;16.44;100.00
61318;BME280;47201;40.428;-8.436;2022-10-22T10:48:07;99935.88;;;16.53;100.00
61318;BME280;47201;40.428;-8.436;2022-10-22T10:50:33;99929.59;;;16.57;100.00
61318;BME280;47201;40.428;-8.436;2022-10-22T10:52:35;99921.56;;;16.60;100.00
61318;BME280;47201;40.428;-8.436;2022-10-22T10:54:53;99930.25;;;16.62;100.00
61318;BME280;47201;40.428;-8.436;2022-10-22T10:57:10;99938.63;;;16.74;100.00
61318;BME280;47201;40.428;-8.436;2022-10-22T10:59:15;99926.84;;;16.83;100.00
61318;BME280;47201;40.428;-8.436;2022-10-22T11:03:52;99926.91;;;17.03;100.00
61318;BME280;47201;40.428;-8.436;2022-10-22T11:05:59;99911.44;;;17.16;100.00
61318;BME280;47201;40.428;-8.436;2022-10-22T11:08:03;99918.72;;;17.32;100.00
61318;BME280;47201;40.428;-8.436;2022-10-22T11:10:11;99927.72;;;17.48;100.00
61318;BME280;47201;40.428;-8.436;2022-10-22T11:12:18;99918.84;;;17.70;100.00
61318;BME280;47201;40.428;-8.436;2022-10-22T11:16:48;99906.31;;;18.53;100.00
61318;BME280;47201;40.428;-8.436;2022-10-22T11:18:54;99895.19;;;19.20;100.00
61318;BME280;47201;40.428;-8.436;2022-10-22T11:21:03;99905.09;;;19.67;100.00
61318;BME280;47201;40.428;-8.436;2022-10-22T11:23:08;99909.00;;;19.77;100.00
61318;BME280;47201;40.428;-8.436;2022-10-22T11:27:32;99904.97;;;19.88;100.00
61318;BME280;47201;40.428;-8.436;2022-10-22T11:29:39;99891.38;;;19.94;100.00
61318;BME280;47201;40.428;-8.436;2022-10-22T11:31:40;99898.56;;;19.92;100.00
61318;BME280;47201;40.428;-8.436;2022-10-22T11:33:44;99878.19;;;19.92;100.00